Time;durP1;ratioP1;P1;durP2;ratioP2;P2;SDS_P1;SDS_P2;PMS_P1;PMS_P2;Temp;Humidity;BMP_temperature;BMP_pressure;BME280_temperature;BME280_humidity;BME280_pressure;Samples;Min_cycle;Max_cycle;Signal;HPM_P1;HPM_P2
2022/09/01 00:02:26;;;;;;;;;2.00;2.00;;;;;;;;5077893;27;45459;-74
2022/09/01 00:04:51;;;;;;;;;2.67;2.00;;;;;;;;5078739;27;45372;-74
2022/09/01 00:07:16;;;;;;;;;2.67;2.00;;;;;;;;5078658;27;45296;-73
2022/09/01 00:09:42;;;;;;;;;1.33;1.33;;;;;;;;5078400;27;45261;-74
2022/09/01 00:12:08;;;;;;;;;2.33;2.00;;;;;;;;5060384;28;48155;-74
2022/09/01 00:14:34;;;;;;;;;2.00;2.00;;;;;;;;5078330;27;45326;-74
2022/09/01 00:17:02;;;;;;;;;3.00;2.00;;;;;;;;5078027;27;45327;-74
2022/09/01 00:19:28;;;;;;;;;2.00;2.00;;;;;;;;5078488;27;45453;-74
2022/09/01 00:21:53;;;;;;;;;2.00;2.00;;;;;;;;5078039;27;46485;-74
2022/09/01 00:24:19;;;;;;;;;2.67;1.00;;;;;;;;5078123;27;45352;-74
2022/09/01 00:26:44;;;;;;;;;2.00;2.00;;;;;;;;5078141;27;45344;-74
2022/09/01 00:29:09;;;;;;;;;3.00;3.00;;;;;;;;5078298;27;45558;-74
2022/09/01 00:31:35;;;;;;;;;4.00;1.33;;;;;;;;5078027;27;45980;-73
2022/09/01 00:34:00;;;;;;;;;2.00;2.00;;;;;;;;5077917;27;45314;-74
2022/09/01 00:36:26;;;;;;;;;2.00;2.00;;;;;;;;5060084;28;45669;-74
2022/09/01 00:38:51;;;;;;;;;3.00;2.00;;;;;;;;5078191;27;45363;-74
2022/09/01 00:41:18;;;;;;;;;4.00;2.67;;;;;;;;5077777;27;46106;-74
2022/09/01 00:43:51;;;;;;;;;2.00;2.00;;;;;;;;5077882;27;45413;-74
2022/09/01 00:46:18;;;;;;;;;2.67;2.00;;;;;;;;5059401;28;45430;-74
2022/09/01 00:48:44;;;;;;;;;2.00;2.00;;;;;;;;5077829;27;45296;-74
2022/09/01 00:51:10;;;;;;;;;2.00;2.00;;;;;;;;5077413;27;46911;-74
2022/09/01 00:53:37;;;;;;;;;2.00;2.00;;;;;;;;5076843;28;45509;-74
2022/09/01 00:56:03;;;;;;;;;2.00;2.00;;;;;;;;5077932;27;45447;-74
2022/09/01 00:58:29;;;;;;;;;3.00;2.00;;;;;;;;5077621;27;45523;-74
2022/09/01 01:00:54;;;;;;;;;2.00;2.00;;;;;;;;5077216;27;46956;-74
2022/09/01 01:03:20;;;;;;;;;1.00;0.67;;;;;;;;5077714;27;45470;-74
2022/09/01 01:05:53;;;;;;;;;2.67;2.00;;;;;;;;5078651;27;45222;-74
2022/09/01 01:08:20;;;;;;;;;3.33;2.00;;;;;;;;5077521;27;45360;-74
2022/09/01 01:10:45;;;;;;;;;1.00;1.00;;;;;;;;5077648;27;46250;-74
2022/09/01 01:13:14;;;;;;;;;1.33;1.33;;;;;;;;5093867;27;45213;-74
2022/09/01 01:15:42;;;;;;;;;1.67;1.67;;;;;;;;5096222;27;45268;-74
2022/09/01 01:18:08;;;;;;;;;2.00;2.00;;;;;;;;5077477;27;45342;-74
2022/09/01 01:23:28;;;;;;;;;2.00;2.00;;;;;;;;5077157;27;45462;-74
2022/09/01 01:25:55;;;;;;;;;1.33;1.33;;;;;;;;5077353;27;45828;-73
2022/09/01 01:28:20;;;;;;;;;1.33;1.33;;;;;;;;5076737;27;45473;-74
2022/09/01 01:30:51;;;;;;;;;2.00;2.00;;;;;;;;5077106;27;46055;-73
2022/09/01 01:33:18;;;;;;;;;1.00;1.00;;;;;;;;5077203;27;45329;-74
2022/09/01 01:35:43;;;;;;;;;2.00;2.00;;;;;;;;5077068;27;45420;-74
2022/09/01 01:38:10;;;;;;;;;2.67;2.67;;;;;;;;5077226;27;45292;-75
2022/09/01 01:40:36;;;;;;;;;2.00;2.00;;;;;;;;5076869;27;46391;-74
2022/09/01 01:43:02;;;;;;;;;2.00;2.00;;;;;;;;5076559;28;45569;-74
2022/09/01 01:45:27;;;;;;;;;2.67;2.67;;;;;;;;5076866;27;45415;-73
2022/09/01 01:47:53;;;;;;;;;2.00;1.67;;;;;;;;5076825;27;45635;-74
2022/09/01 01:50:19;;;;;;;;;4.00;3.00;;;;;;;;5076667;27;45348;-74
2022/09/01 01:52:44;;;;;;;;;2.00;2.00;;;;;;;;5076934;27;45304;-74
2022/09/01 01:55:11;;;;;;;;;2.00;2.00;;;;;;;;5077070;28;45329;-73
2022/09/01 01:57:38;;;;;;;;;2.00;2.00;;;;;;;;5076488;27;45355;-73
2022/09/01 02:00:04;;;;;;;;;3.33;2.00;;;;;;;;5076565;27;46100;-73
2022/09/01 02:02:30;;;;;;;;;2.00;2.00;;;;;;;;5076360;27;45337;-73
2022/09/01 02:04:55;;;;;;;;;2.00;2.00;;;;;;;;5076096;27;45663;-74
2022/09/01 02:07:20;;;;;;;;;1.33;1.33;;;;;;;;5076838;27;45346;-73
2022/09/01 02:09:47;;;;;;;;;2.00;2.00;;;;;;;;5076132;27;46984;-72
2022/09/01 02:12:12;;;;;;;;;2.67;2.33;;;;;;;;5058268;28;45351;-73
2022/09/01 02:14:37;;;;;;;;;2.00;2.00;;;;;;;;5076669;27;45372;-73
2022/09/01 02:17:05;;;;;;;;;4.00;2.33;;;;;;;;5076488;27;45252;-73
2022/09/01 02:19:30;;;;;;;;;1.00;1.00;;;;;;;;5076397;27;47269;-73
2022/09/01 02:21:55;;;;;;;;;1.00;1.00;;;;;;;;5076234;27;45378;-73
2022/09/01 02:24:20;;;;;;;;;2.67;2.67;;;;;;;;5076768;27;45346;-73
2022/09/01 02:26:47;;;;;;;;;1.00;1.00;;;;;;;;5076095;27;45349;-73
2022/09/01 02:29:17;;;;;;;;;2.67;2.00;;;;;;;;5076158;27;47087;-72
2022/09/01 02:31:43;;;;;;;;;2.00;2.00;;;;;;;;5075899;27;45371;-73
2022/09/01 02:34:09;;;;;;;;;1.00;1.00;;;;;;;;5076617;28;45311;-73
2022/09/01 02:36:36;;;;;;;;;2.00;2.00;;;;;;;;5076249;27;45433;-73
2022/09/01 02:39:02;;;;;;;;;2.33;2.33;;;;;;;;5075889;27;46934;-73
2022/09/01 02:41:28;;;;;;;;;1.00;1.00;;;;;;;;5075846;27;45396;-73
2022/09/01 02:43:54;;;;;;;;;2.00;2.00;;;;;;;;5075937;27;45348;-73
2022/09/01 02:46:22;;;;;;;;;1.00;1.00;;;;;;;;5076047;28;45343;-73
2022/09/01 02:48:50;;;;;;;;;3.00;3.00;;;;;;;;5075680;27;46185;-74
2022/09/01 02:51:16;;;;;;;;;4.33;3.00;;;;;;;;5075718;27;45403;-73
2022/09/01 02:53:42;;;;;;;;;3.00;2.00;;;;;;;;5076017;27;45374;-73
2022/09/01 02:56:13;;;;;;;;;1.00;1.00;;;;;;;;5075730;28;45335;-73
2022/09/01 02:58:44;;;;;;;;;2.00;2.00;;;;;;;;5075699;27;46282;-73
2022/09/01 03:01:10;;;;;;;;;2.00;2.00;;;;;;;;5075618;27;45565;-73
2022/09/01 03:03:36;;;;;;;;;3.67;2.00;;;;;;;;5075926;27;45316;-72
2022/09/01 03:06:02;;;;;;;;;2.00;2.00;;;;;;;;5076141;27;45303;-72
2022/09/01 03:08:27;;;;;;;;;3.67;3.67;;;;;;;;5075585;27;45341;-72
2022/09/01 03:10:52;;;;;;;;;3.00;3.00;;;;;;;;5075635;27;45454;-73
2022/09/01 03:13:19;;;;;;;;;2.00;2.00;;;;;;;;5076218;27;45322;-72
2022/09/01 03:15:45;;;;;;;;;3.00;2.00;;;;;;;;5074795;28;45307;-73
2022/09/01 03:18:11;;;;;;;;;2.00;2.00;;;;;;;;5075469;27;46072;-73
2022/09/01 03:20:42;;;;;;;;;2.67;2.00;;;;;;;;5075820;28;45435;-73
2022/09/01 03:23:08;;;;;;;;;1.00;1.00;;;;;;;;5075734;28;45943;-73
2022/09/01 03:25:35;;;;;;;;;3.00;3.00;;;;;;;;5075091;27;45331;-73
2022/09/01 03:28:01;;;;;;;;;3.00;1.00;;;;;;;;5075397;28;45740;-73
2022/09/01 03:30:31;;;;;;;;;1.00;1.00;;;;;;;;5075253;28;45340;-72
2022/09/01 03:32:56;;;;;;;;;3.00;1.67;;;;;;;;5075456;28;45283;-73
2022/09/01 03:35:23;;;;;;;;;1.00;1.00;;;;;;;;5075472;27;45349;-73
2022/09/01 03:37:48;;;;;;;;;2.00;2.00;;;;;;;;5075215;27;46237;-72
2022/09/01 03:40:14;;;;;;;;;1.67;1.33;;;;;;;;5056841;27;45320;-73
2022/09/01 03:42:40;;;;;;;;;3.67;2.67;;;;;;;;5075587;28;45324;-73
2022/09/01 03:45:09;;;;;;;;;2.33;2.33;;;;;;;;5075408;27;45367;-73
2022/09/01 03:47:38;;;;;;;;;3.00;3.00;;;;;;;;5075075;27;46484;-73
2022/09/01 03:50:04;;;;;;;;;2.00;2.00;;;;;;;;5074933;27;45592;-73
2022/09/01 03:52:30;;;;;;;;;2.00;2.00;;;;;;;;5075123;27;45363;-73
2022/09/01 03:54:58;;;;;;;;;4.00;2.00;;;;;;;;5074954;28;45339;-73
2022/09/01 03:57:25;;;;;;;;;2.00;2.00;;;;;;;;5075056;28;46445;-73
2022/09/01 03:59:50;;;;;;;;;2.00;2.00;;;;;;;;5074930;28;45399;-73
2022/09/01 04:02:16;;;;;;;;;2.00;2.00;;;;;;;;5074816;27;45383;-73
2022/09/01 04:04:41;;;;;;;;;3.00;3.00;;;;;;;;5075180;27;45272;-72
2022/09/01 04:07:06;;;;;;;;;3.33;2.33;;;;;;;;5074764;27;45466;-73
2022/09/01 04:09:32;;;;;;;;;3.00;2.00;;;;;;;;5074709;28;45442;-73
2022/09/01 04:11:58;;;;;;;;;3.00;3.00;;;;;;;;5061047;28;45269;-73
2022/09/01 04:14:24;;;;;;;;;3.67;3.00;;;;;;;;5075085;28;45398;-73
2022/09/01 04:19:35;;;;;;;;;3.00;3.00;;;;;;;;5075075;28;46653;-73
2022/09/01 04:22:01;;;;;;;;;3.67;2.00;;;;;;;;5074898;28;45561;-73
2022/09/01 04:24:28;;;;;;;;;2.33;2.33;;;;;;;;5074414;28;45380;-73
2022/09/01 04:27:00;;;;;;;;;2.00;2.00;;;;;;;;5075581;27;46913;-73
2022/09/01 04:29:26;;;;;;;;;4.00;2.00;;;;;;;;5078185;27;45458;-73
2022/09/01 04:31:55;;;;;;;;;1.67;1.67;;;;;;;;5078141;27;45399;-73
2022/09/01 04:34:21;;;;;;;;;5.33;2.33;;;;;;;;5078292;28;45307;-73
2022/09/01 04:36:47;;;;;;;;;2.00;2.00;;;;;;;;5077355;27;46335;-73
2022/09/01 04:39:12;;;;;;;;;2.67;1.67;;;;;;;;5078066;27;45250;-73
2022/09/01 04:41:40;;;;;;;;;4.00;2.00;;;;;;;;5078056;27;45272;-73
2022/09/01 04:44:06;;;;;;;;;4.00;2.00;;;;;;;;5078148;27;45439;-73
2022/09/01 04:46:35;;;;;;;;;3.00;2.33;;;;;;;;5077898;27;45958;-73
2022/09/01 04:49:09;;;;;;;;;3.00;3.00;;;;;;;;5077227;27;45352;-73
2022/09/01 04:51:38;;;;;;;;;2.00;2.00;;;;;;;;5077672;27;45384;-73
2022/09/01 04:54:10;;;;;;;;;3.00;3.00;;;;;;;;5077767;27;45300;-73
2022/09/01 04:56:36;;;;;;;;;3.33;3.00;;;;;;;;5059476;28;47231;-73
2022/09/01 04:59:05;;;;;;;;;2.00;2.00;;;;;;;;5077426;27;45691;-74
2022/09/01 05:01:41;;;;;;;;;2.00;2.00;;;;;;;;5078018;27;45328;-73
2022/09/01 05:04:07;;;;;;;;;3.33;1.67;;;;;;;;5077361;27;45351;-73
2022/09/01 05:06:33;;;;;;;;;2.67;2.67;;;;;;;;5077135;27;46704;-73
2022/09/01 05:08:58;;;;;;;;;4.33;3.00;;;;;;;;5077729;27;45482;-73
2022/09/01 05:11:24;;;;;;;;;5.00;4.00;;;;;;;;5077745;27;45404;-73
2022/09/01 05:13:53;;;;;;;;;2.33;2.33;;;;;;;;5077544;27;45636;-72
2022/09/01 05:16:20;;;;;;;;;3.67;3.67;;;;;;;;5077402;27;46278;-73
2022/09/01 05:18:47;;;;;;;;;3.67;3.00;;;;;;;;5077398;27;45555;-73
2022/09/01 05:21:15;;;;;;;;;3.33;3.33;;;;;;;;5077144;28;45452;-74
2022/09/01 05:23:40;;;;;;;;;4.00;4.00;;;;;;;;5077083;27;45498;-72
2022/09/01 05:26:17;;;;;;;;;3.67;3.67;;;;;;;;5077145;27;46047;-73
2022/09/01 05:28:43;;;;;;;;;2.33;2.33;;;;;;;;5077205;27;45420;-72
2022/09/01 05:31:09;;;;;;;;;2.67;2.67;;;;;;;;5059182;28;45452;-73
2022/09/01 05:33:35;;;;;;;;;3.00;3.00;;;;;;;;5077240;27;45372;-73
2022/09/01 05:36:03;;;;;;;;;3.33;2.00;;;;;;;;5076718;27;46274;-73
2022/09/01 05:38:29;;;;;;;;;3.00;3.00;;;;;;;;5076075;27;45371;-73
2022/09/01 05:40:56;;;;;;;;;4.33;3.67;;;;;;;;5070937;28;45345;-73
2022/09/01 05:43:22;;;;;;;;;2.67;2.67;;;;;;;;5069400;27;45263;-74
2022/09/01 05:45:48;;;;;;;;;4.00;4.00;;;;;;;;5076853;27;45309;-74
2022/09/01 05:48:20;;;;;;;;;2.00;2.00;;;;;;;;5060325;27;45357;-73
2022/09/01 05:50:48;;;;;;;;;3.67;2.00;;;;;;;;5061258;27;45787;-74
2022/09/01 05:53:16;;;;;;;;;4.33;3.33;;;;;;;;5058916;27;45646;-74
2022/09/01 05:55:42;;;;;;;;;2.33;2.33;;;;;;;;5055991;28;46362;-75
2022/09/01 05:58:12;;;;;;;;;3.33;3.00;;;;;;;;5057807;27;45376;-74
2022/09/01 06:00:37;;;;;;;;;5.00;5.00;;;;;;;;5060162;27;45418;-74
2022/09/01 06:03:08;;;;;;;;;3.33;3.33;;;;;;;;5060738;28;45550;-72
2022/09/01 06:05:35;;;;;;;;;6.33;4.67;;;;;;;;5072874;27;46319;-74
2022/09/01 06:08:00;;;;;;;;;6.00;5.00;;;;;;;;5065045;27;45445;-73
2022/09/01 06:10:25;;;;;;;;;7.00;5.00;;;;;;;;5074107;27;45374;-74
2022/09/01 06:12:52;;;;;;;;;8.25;5.00;;;;;;;;5069679;28;45645;-72
2022/09/01 06:15:17;;;;;;;;;4.67;4.67;;;;;;;;5075394;27;47029;-72
2022/09/01 06:17:43;;;;;;;;;7.00;5.67;;;;;;;;5075232;27;45428;-73
2022/09/01 06:20:09;;;;;;;;;7.75;6.00;;;;;;;;5076080;27;45304;-73
2022/09/01 06:22:35;;;;;;;;;6.00;6.00;;;;;;;;5075907;27;45634;-74
2022/09/01 06:25:00;;;;;;;;;3.50;3.50;;;;;;;;5075963;27;47110;-73
2022/09/01 06:27:26;;;;;;;;;6.75;5.50;;;;;;;;5076371;27;45542;-69
2022/09/01 06:29:55;;;;;;;;;3.33;3.33;;;;;;;;5076515;27;45418;-79
2022/09/01 06:32:20;;;;;;;;;5.00;5.00;;;;;;;;5076558;28;45534;-78
2022/09/01 06:34:49;;;;;;;;;5.00;5.00;;;;;;;;5076082;27;46126;-79
2022/09/01 06:37:14;;;;;;;;;5.00;4.00;;;;;;;;5076460;27;45375;-79
2022/09/01 06:39:40;;;;;;;;;3.67;3.67;;;;;;;;5076605;27;45272;-79
2022/09/01 06:42:05;;;;;;;;;5.00;4.00;;;;;;;;5076599;27;45280;-79
2022/09/01 06:44:30;;;;;;;;;5.67;5.67;;;;;;;;5076177;27;45412;-78
2022/09/01 06:46:56;;;;;;;;;4.00;3.00;;;;;;;;5076278;27;45366;-78
2022/09/01 06:49:31;;;;;;;;;4.67;4.67;;;;;;;;5075895;27;45383;-78
2022/09/01 06:51:57;;;;;;;;;5.33;3.67;;;;;;;;5076354;28;45426;-79
2022/09/01 06:54:22;;;;;;;;;6.00;4.67;;;;;;;;5075932;28;47145;-78
2022/09/01 06:56:47;;;;;;;;;6.00;4.33;;;;;;;;5076125;27;45284;-78
2022/09/01 06:59:14;;;;;;;;;5.00;5.00;;;;;;;;5076039;27;45546;-79
2022/09/01 07:01:39;;;;;;;;;4.67;4.00;;;;;;;;5058131;28;45512;-78
2022/09/01 07:04:04;;;;;;;;;4.00;4.00;;;;;;;;5075532;27;46328;-79
2022/09/01 07:06:30;;;;;;;;;4.00;3.00;;;;;;;;5076052;27;45353;-78
2022/09/01 07:08:57;;;;;;;;;4.33;3.00;;;;;;;;5058021;28;45320;-79
2022/09/01 07:11:26;;;;;;;;;5.00;4.00;;;;;;;;5076026;28;45449;-79
2022/09/01 07:13:53;;;;;;;;;4.00;4.00;;;;;;;;5075910;28;47122;-79
2022/09/01 07:16:20;;;;;;;;;3.33;3.33;;;;;;;;5075340;28;45371;-78
2022/09/01 07:18:46;;;;;;;;;4.00;3.00;;;;;;;;5076000;27;45668;-78
2022/09/01 07:21:11;;;;;;;;;3.00;3.00;;;;;;;;5075785;27;45248;-79
2022/09/01 07:23:38;;;;;;;;;3.00;3.00;;;;;;;;5075745;28;46310;-79
2022/09/01 07:26:04;;;;;;;;;4.00;4.00;;;;;;;;5057613;28;45820;-78
2022/09/01 07:28:31;;;;;;;;;3.00;3.00;;;;;;;;5075164;27;45388;-78
2022/09/01 07:30:57;;;;;;;;;5.00;5.00;;;;;;;;5075678;28;45442;-79
2022/09/01 07:33:23;;;;;;;;;4.00;4.00;;;;;;;;5075362;27;47240;-79
2022/09/01 07:35:51;;;;;;;;;5.67;3.67;;;;;;;;5075513;28;45332;-79
2022/09/01 07:38:18;;;;;;;;;4.00;4.00;;;;;;;;5075687;28;45304;-79
2022/09/01 07:40:44;;;;;;;;;4.00;4.00;;;;;;;;5075390;27;45317;-79
2022/09/01 07:43:21;;;;;;;;;3.00;3.00;;;;;;;;5075536;28;45318;-79
2022/09/01 07:45:48;;;;;;;;;2.00;2.00;;;;;;;;5075044;28;45582;-79
2022/09/01 07:48:17;;;;;;;;;4.00;3.00;;;;;;;;5075468;28;45480;-78
2022/09/01 07:50:46;;;;;;;;;4.00;3.00;;;;;;;;5075237;28;45636;-79
2022/09/01 07:53:11;;;;;;;;;3.00;3.00;;;;;;;;5075160;28;46196;-79
2022/09/01 07:55:40;;;;;;;;;3.33;2.67;;;;;;;;5075508;28;45446;-79
2022/09/01 07:58:05;;;;;;;;;4.00;4.00;;;;;;;;5075729;27;45666;-79
2022/09/01 08:00:32;;;;;;;;;2.67;2.67;;;;;;;;5074976;28;45645;-79
2022/09/01 08:02:57;;;;;;;;;4.00;4.00;;;;;;;;5077780;27;46110;-79
2022/09/01 08:05:25;;;;;;;;;4.00;4.00;;;;;;;;5078908;27;45281;-79
2022/09/01 08:07:51;;;;;;;;;4.33;4.00;;;;;;;;5079064;27;45406;-78
2022/09/01 08:10:16;;;;;;;;;5.00;4.00;;;;;;;;5078652;27;45507;-79
2022/09/01 08:12:41;;;;;;;;;3.00;3.00;;;;;;;;5078907;27;46050;-80
2022/09/01 08:15:07;;;;;;;;;5.00;3.33;;;;;;;;5078288;27;45387;-79
2022/09/01 08:17:32;;;;;;;;;3.00;3.00;;;;;;;;5078835;27;45406;-79
2022/09/01 08:19:57;;;;;;;;;4.00;4.00;;;;;;;;5078736;27;45488;-79
2022/09/01 08:22:24;;;;;;;;;2.67;2.00;;;;;;;;5078583;27;46968;-78
2022/09/01 08:24:50;;;;;;;;;4.00;4.00;;;;;;;;5078894;27;45409;-79
2022/09/01 08:27:15;;;;;;;;;3.00;3.00;;;;;;;;5078349;27;45327;-79
2022/09/01 08:29:40;;;;;;;;;3.00;3.00;;;;;;;;5078087;27;45331;-79
2022/09/01 08:32:05;;;;;;;;;3.00;3.00;;;;;;;;5078338;27;45429;-79
2022/09/01 08:34:32;;;;;;;;;3.00;2.33;;;;;;;;5078741;28;45296;-78
2022/09/01 08:36:57;;;;;;;;;5.00;3.67;;;;;;;;5078529;27;45312;-78
2022/09/01 08:39:22;;;;;;;;;3.00;3.00;;;;;;;;5078576;27;45316;-79
2022/09/01 08:41:47;;;;;;;;;3.67;3.67;;;;;;;;5078382;27;46219;-78
2022/09/01 08:44:20;;;;;;;;;3.00;3.00;;;;;;;;5078119;27;45312;-79
2022/09/01 08:46:47;;;;;;;;;3.00;3.00;;;;;;;;5078664;27;45650;-79
2022/09/01 08:49:18;;;;;;;;;4.00;4.00;;;;;;;;5077836;27;45392;-79
2022/09/01 08:51:48;;;;;;;;;3.00;3.00;;;;;;;;5078032;28;47290;-79
2022/09/01 08:54:14;;;;;;;;;3.00;3.00;;;;;;;;5078086;27;45399;-79
2022/09/01 08:56:39;;;;;;;;;4.00;3.00;;;;;;;;5078173;27;45489;-79
2022/09/01 08:59:06;;;;;;;;;4.00;4.00;;;;;;;;5077743;27;45484;-80
2022/09/01 09:01:43;;;;;;;;;4.33;3.00;;;;;;;;5078203;27;46201;-79
2022/09/01 09:04:20;;;;;;;;;2.00;2.00;;;;;;;;5077646;27;45475;-78
2022/09/01 09:07:18;;;;;;;;;3.00;3.00;;;;;;;;5078080;27;45486;-78
2022/09/01 09:09:52;;;;;;;;;3.33;3.33;;;;;;;;5014981;28;45584;-78
2022/09/01 09:12:36;;;;;;;;;2.67;2.67;;;;;;;;5014735;28;46412;-78
2022/09/01 09:15:01;;;;;;;;;3.00;3.00;;;;;;;;5014284;28;45584;-78
2022/09/01 09:17:29;;;;;;;;;6.00;4.00;;;;;;;;5015389;28;45468;-78
2022/09/01 09:19:54;;;;;;;;;3.00;3.00;;;;;;;;5015253;28;45459;-78
2022/09/01 09:22:19;;;;;;;;;1.67;1.67;;;;;;;;5015091;28;45406;-79
2022/09/01 09:24:51;;;;;;;;;3.67;3.67;;;;;;;;5015341;28;45537;-78
2022/09/01 09:27:21;;;;;;;;;3.33;3.33;;;;;;;;5014703;28;45476;-78
2022/09/01 09:29:52;;;;;;;;;5.67;4.00;;;;;;;;5014887;28;45555;-78
2022/09/01 09:32:18;;;;;;;;;3.00;3.00;;;;;;;;5014845;28;45373;-79
2022/09/01 09:34:44;;;;;;;;;2.67;2.67;;;;;;;;5015171;28;45342;-79
2022/09/01 09:37:18;;;;;;;;;5.00;4.00;;;;;;;;5014702;28;45432;-79
2022/09/01 09:39:43;;;;;;;;;2.00;2.00;;;;;;;;5015131;28;45365;-78
2022/09/01 09:42:10;;;;;;;;;3.33;2.67;;;;;;;;5014296;28;46024;-78
2022/09/01 09:44:47;;;;;;;;;4.00;2.67;;;;;;;;5023005;28;45422;-78
2022/09/01 09:47:31;;;;;;;;;4.00;4.00;;;;;;;;5073337;27;45668;-78
2022/09/01 09:50:15;;;;;;;;;4.00;2.67;;;;;;;;5077219;27;45455;-79
2022/09/01 09:52:42;;;;;;;;;4.00;3.00;;;;;;;;5076996;27;46366;-79
2022/09/01 09:55:16;;;;;;;;;3.00;3.00;;;;;;;;5077184;27;45386;-79
2022/09/01 09:57:41;;;;;;;;;4.00;4.00;;;;;;;;5076772;27;45411;-79
2022/09/01 10:00:15;;;;;;;;;3.00;3.00;;;;;;;;5077344;28;45431;-78
2022/09/01 10:02:42;;;;;;;;;3.33;3.33;;;;;;;;5076791;27;47429;-79
2022/09/01 10:05:25;;;;;;;;;3.33;3.33;;;;;;;;5076888;27;45430;-79
2022/09/01 10:07:50;;;;;;;;;5.00;5.00;;;;;;;;5077133;27;45313;-78
2022/09/01 10:10:25;;;;;;;;;2.67;2.67;;;;;;;;5076720;27;45433;-79
2022/09/01 10:12:51;;;;;;;;;2.00;2.00;;;;;;;;5077042;27;47197;-78
2022/09/01 10:15:18;;;;;;;;;3.33;3.00;;;;;;;;5076630;27;45462;-79
2022/09/01 10:17:43;;;;;;;;;2.33;2.00;;;;;;;;5076941;27;45344;-78
2022/09/01 10:20:15;;;;;;;;;3.00;3.00;;;;;;;;5076924;27;45466;-78
2022/09/01 10:22:41;;;;;;;;;4.67;4.67;;;;;;;;5077080;27;47250;-79
2022/09/01 10:25:07;;;;;;;;;6.00;4.67;;;;;;;;5075772;27;45332;-79
2022/09/01 10:27:39;;;;;;;;;3.00;3.00;;;;;;;;5077050;27;45398;-78
2022/09/01 10:30:07;;;;;;;;;2.33;2.33;;;;;;;;5076632;28;45507;-79
2022/09/01 10:32:58;;;;;;;;;4.00;4.00;;;;;;;;5076580;27;46865;-79
2022/09/01 10:35:49;;;;;;;;;3.33;3.33;;;;;;;;5073275;27;45353;-78
2022/09/01 10:38:17;;;;;;;;;3.00;3.00;;;;;;;;5073604;28;45359;-78
2022/09/01 10:40:47;;;;;;;;;2.67;2.67;;;;;;;;5076350;27;45277;-79
2022/09/01 10:43:22;;;;;;;;;5.00;3.00;;;;;;;;5076388;27;46119;-78
2022/09/01 10:45:47;;;;;;;;;3.67;3.67;;;;;;;;5076292;27;45472;-78
2022/09/01 10:48:32;;;;;;;;;4.00;4.00;;;;;;;;5076519;27;45356;-78
2022/09/01 10:51:12;;;;;;;;;7.00;3.00;;;;;;;;5076116;27;45498;-78
2022/09/01 10:53:38;;;;;;;;;3.33;3.00;;;;;;;;5076080;27;46444;-78
2022/09/01 10:56:21;;;;;;;;;4.00;4.00;;;;;;;;5075941;28;45490;-77
2022/09/01 10:59:03;;;;;;;;;3.33;3.33;;;;;;;;5076468;27;45465;-78
2022/09/01 11:01:37;;;;;;;;;3.00;3.00;;;;;;;;5063565;27;45504;-78
2022/09/01 11:04:02;;;;;;;;;4.67;4.67;;;;;;;;5075717;27;46272;-78
2022/09/01 11:06:42;;;;;;;;;4.67;4.00;;;;;;;;5075810;28;45374;-78
2022/09/01 11:09:20;;;;;;;;;3.00;3.00;;;;;;;;5075720;27;45478;-78
2022/09/01 11:11:48;;;;;;;;;4.00;4.00;;;;;;;;5076076;28;45310;-78
2022/09/01 11:14:34;;;;;;;;;5.33;4.33;;;;;;;;5075879;27;47497;-78
2022/09/01 11:17:17;;;;;;;;;3.00;3.00;;;;;;;;5075454;27;45345;-79
2022/09/01 11:20:07;;;;;;;;;3.00;3.00;;;;;;;;5076017;28;45486;-78
2022/09/01 11:22:38;;;;;;;;;3.67;3.00;;;;;;;;5075895;28;45445;-79
2022/09/01 11:25:08;;;;;;;;;3.00;3.00;;;;;;;;5075242;27;46255;-79
2022/09/01 11:27:54;;;;;;;;;4.00;4.00;;;;;;;;5075904;27;45300;-79
2022/09/01 11:30:19;;;;;;;;;3.00;3.00;;;;;;;;5075572;27;45365;-78
2022/09/01 11:32:46;;;;;;;;;3.67;3.67;;;;;;;;5076031;28;45421;-78
2022/09/01 11:35:22;;;;;;;;;3.00;3.00;;;;;;;;5075301;27;47019;-78
2022/09/01 11:37:48;;;;;;;;;3.67;3.67;;;;;;;;5074584;27;45280;-78
2022/09/01 11:40:19;;;;;;;;;5.33;4.00;;;;;;;;5075706;28;45544;-78
2022/09/01 11:42:45;;;;;;;;;3.33;3.33;;;;;;;;5075783;28;45775;-78
2022/09/01 11:45:13;;;;;;;;;3.00;3.00;;;;;;;;5075539;27;46357;-78
2022/09/01 11:47:43;;;;;;;;;3.00;3.00;;;;;;;;5075308;27;45473;-78
2022/09/01 11:50:15;;;;;;;;;3.67;3.67;;;;;;;;5075495;27;45433;-78
2022/09/01 11:52:40;;;;;;;;;4.00;3.67;;;;;;;;5075172;27;45374;-78
2022/09/01 11:55:06;;;;;;;;;2.33;2.33;;;;;;;;5075434;28;45960;-77
2022/09/01 11:57:33;;;;;;;;;2.00;2.00;;;;;;;;5075403;27;45285;-78
2022/09/01 12:00:00;;;;;;;;;3.00;3.00;;;;;;;;5075630;28;45332;-78
2022/09/01 12:02:32;;;;;;;;;3.00;3.00;;;;;;;;5075095;27;45539;-78
2022/09/01 12:04:58;;;;;;;;;3.33;3.33;;;;;;;;5075145;27;47222;-78
2022/09/01 12:07:32;;;;;;;;;4.33;3.00;;;;;;;;5074866;28;45368;-78
2022/09/01 12:09:57;;;;;;;;;4.00;4.00;;;;;;;;5075493;27;45300;-78
2022/09/01 12:12:25;;;;;;;;;2.67;2.67;;;;;;;;5075278;27;45435;-78
2022/09/01 12:14:57;;;;;;;;;3.00;3.00;;;;;;;;5075244;28;45395;-78
2022/09/01 12:17:23;;;;;;;;;5.50;3.00;;;;;;;;5075250;28;45348;-78
2022/09/01 12:19:48;;;;;;;;;3.00;2.67;;;;;;;;5075107;27;45341;-79
2022/09/01 12:22:15;;;;;;;;;3.00;3.00;;;;;;;;5075214;28;45272;-78
2022/09/01 12:24:44;;;;;;;;;3.00;3.00;;;;;;;;5056689;28;48372;-79
2022/09/01 12:27:10;;;;;;;;;2.67;2.67;;;;;;;;5074734;28;45411;-79
2022/09/01 12:29:36;;;;;;;;;2.00;2.00;;;;;;;;5075183;27;45420;-79
2022/09/01 12:32:02;;;;;;;;;3.00;3.00;;;;;;;;5075295;28;45238;-79
2022/09/01 12:34:37;;;;;;;;;4.33;4.33;;;;;;;;5074703;27;46240;-79
2022/09/01 12:37:07;;;;;;;;;3.67;3.67;;;;;;;;5074358;28;45406;-78
2022/09/01 12:39:37;;;;;;;;;3.67;3.67;;;;;;;;5075094;27;45361;-79
2022/09/01 12:42:05;;;;;;;;;4.00;4.00;;;;;;;;5075248;27;45402;-78
2022/09/01 12:44:36;;;;;;;;;2.33;2.33;;;;;;;;5074656;28;46907;-79
2022/09/01 12:47:06;;;;;;;;;5.33;3.67;;;;;;;;5074674;27;45402;-78
2022/09/01 12:49:41;;;;;;;;;2.67;2.67;;;;;;;;5078399;27;45399;-78
2022/09/01 12:52:12;;;;;;;;;4.00;3.67;;;;;;;;5078369;27;45359;-80
2022/09/01 12:54:38;;;;;;;;;3.33;3.33;;;;;;;;5078241;27;45402;-79
2022/09/01 12:57:04;;;;;;;;;2.33;2.33;;;;;;;;5078099;27;45585;-79
2022/09/01 12:59:29;;;;;;;;;4.00;4.00;;;;;;;;5078383;27;45468;-79
2022/09/01 13:01:54;;;;;;;;;4.00;4.00;;;;;;;;5078136;27;45514;-79
2022/09/01 13:04:20;;;;;;;;;3.33;3.33;;;;;;;;5077347;27;45473;-79
2022/09/01 13:06:45;;;;;;;;;4.00;4.00;;;;;;;;5059930;28;45360;-79
2022/09/01 13:09:10;;;;;;;;;3.00;3.00;;;;;;;;5078108;28;45325;-79
2022/09/01 13:11:35;;;;;;;;;5.00;2.67;;;;;;;;5078089;27;45564;-79
2022/09/01 13:14:01;;;;;;;;;4.00;4.00;;;;;;;;5078121;27;46884;-79
2022/09/01 13:16:26;;;;;;;;;4.00;4.00;;;;;;;;5077889;27;45371;-79
2022/09/01 13:18:51;;;;;;;;;4.00;4.00;;;;;;;;5077823;27;45452;-79
2022/09/01 13:21:16;;;;;;;;;2.00;2.00;;;;;;;;5078167;27;45428;-79
2022/09/01 13:23:41;;;;;;;;;3.00;3.00;;;;;;;;5077582;27;45989;-79
2022/09/01 13:26:07;;;;;;;;;4.00;4.00;;;;;;;;5077840;27;45511;-79
2022/09/01 13:28:32;;;;;;;;;4.00;4.00;;;;;;;;5077690;27;45493;-79
2022/09/01 13:31:04;;;;;;;;;3.00;3.00;;;;;;;;5077833;27;45465;-79
2022/09/01 13:33:29;;;;;;;;;3.33;3.33;;;;;;;;5077315;27;45399;-78
2022/09/01 13:35:55;;;;;;;;;5.00;3.00;;;;;;;;5077569;27;45618;-79
2022/09/01 13:38:20;;;;;;;;;3.00;3.00;;;;;;;;5077570;27;45307;-79
2022/09/01 13:40:46;;;;;;;;;3.00;3.00;;;;;;;;5077815;27;45284;-78
2022/09/01 13:43:12;;;;;;;;;4.00;4.00;;;;;;;;5077259;27;45452;-79
2022/09/01 13:45:39;;;;;;;;;3.67;3.67;;;;;;;;5077276;27;45626;-78
2022/09/01 13:48:05;;;;;;;;;3.00;3.00;;;;;;;;5077128;27;45344;-79
2022/09/01 13:50:30;;;;;;;;;5.00;5.00;;;;;;;;5074693;27;45291;-78
2022/09/01 13:52:55;;;;;;;;;2.67;2.67;;;;;;;;5077254;27;46043;-78
2022/09/01 13:55:22;;;;;;;;;2.67;2.67;;;;;;;;5077269;27;45418;-78
2022/09/01 13:57:48;;;;;;;;;4.00;2.67;;;;;;;;5077238;27;45431;-78
2022/09/01 14:00:16;;;;;;;;;3.67;3.67;;;;;;;;5076642;28;45655;-80
2022/09/01 14:02:47;;;;;;;;;4.00;4.00;;;;;;;;5076701;27;46104;-79
2022/09/01 14:05:13;;;;;;;;;4.67;4.67;;;;;;;;5077035;27;45392;-79
2022/09/01 14:07:38;;;;;;;;;4.00;4.00;;;;;;;;5077065;28;45371;-79
2022/09/01 14:10:04;;;;;;;;;3.00;3.00;;;;;;;;5077288;27;45327;-78
2022/09/01 14:12:30;;;;;;;;;3.67;3.67;;;;;;;;5076867;28;47116;-79
2022/09/01 14:14:56;;;;;;;;;3.00;3.00;;;;;;;;5076841;27;45302;-79
2022/09/01 14:17:21;;;;;;;;;2.33;2.33;;;;;;;;5076832;27;45466;-79
2022/09/01 14:19:49;;;;;;;;;3.33;3.33;;;;;;;;5076901;27;45314;-78
2022/09/01 14:22:15;;;;;;;;;3.00;3.00;;;;;;;;5076950;28;45397;-79
2022/09/01 14:24:40;;;;;;;;;4.00;4.00;;;;;;;;5077090;27;45439;-79
2022/09/01 14:27:05;;;;;;;;;3.00;3.00;;;;;;;;5076685;27;45373;-79
2022/09/01 14:29:30;;;;;;;;;4.00;4.00;;;;;;;;5076966;28;45376;-79
2022/09/01 14:31:56;;;;;;;;;5.00;5.00;;;;;;;;5076148;27;46921;-79
2022/09/01 14:34:23;;;;;;;;;4.00;4.00;;;;;;;;5076762;27;45358;-79
2022/09/01 14:36:48;;;;;;;;;4.00;4.00;;;;;;;;5076719;27;45307;-79
2022/09/01 14:39:14;;;;;;;;;3.67;3.67;;;;;;;;5076670;28;45529;-78
2022/09/01 14:41:39;;;;;;;;;3.67;3.67;;;;;;;;5076674;28;45582;-79
2022/09/01 14:44:05;;;;;;;;;5.67;5.67;;;;;;;;5076555;27;45391;-79
2022/09/01 14:46:32;;;;;;;;;5.00;5.00;;;;;;;;5076200;28;45412;-78
2022/09/01 14:48:58;;;;;;;;;3.67;3.67;;;;;;;;5076177;27;45508;-79
2022/09/01 14:51:24;;;;;;;;;4.00;4.00;;;;;;;;5076282;27;46258;-78
2022/09/01 14:53:51;;;;;;;;;4.00;4.00;;;;;;;;5076329;27;45414;-78